sensor_id;sensor_type;location;lat;lon;timestamp;pressure;altitude;pressure_sealevel;temperature;humidity
60355;BME280;46198;51.464;-0.066;2023-01-26T00:02:10;102759.75;;;4.82;100.00
60355;BME280;46198;51.464;-0.066;2023-01-26T00:04:38;102764.50;;;4.69;100.00
60355;BME280;46198;51.464;-0.066;2023-01-26T00:07:10;102749.16;;;4.60;100.00
60355;BME280;46198;51.464;-0.066;2023-01-26T00:09:38;102753.03;;;4.67;100.00
60355;BME280;46198;51.464;-0.066;2023-01-26T00:12:06;102752.13;;;4.57;100.00
60355;BME280;46198;51.464;-0.066;2023-01-26T00:14:36;102746.75;;;4.57;100.00
60355;BME280;46198;51.464;-0.066;2023-01-26T00:17:18;102753.38;;;4.53;100.00
60355;BME280;46198;51.464;-0.066;2023-01-26T00:19:53;102741.63;;;4.54;100.00
60355;BME280;46198;51.464;-0.066;2023-01-26T00:22:25;102746.16;;;4.53;100.00
60355;BME280;46198;51.464;-0.066;2023-01-26T00:24:53;102754.44;;;4.61;100.00
60355;BME280;46198;51.464;-0.066;2023-01-26T00:27:21;102756.66;;;4.56;100.00
60355;BME280;46198;51.464;-0.066;2023-01-26T00:29:50;102758.75;;;4.53;100.00
60355;BME280;46198;51.464;-0.066;2023-01-26T00:32:20;102755.47;;;4.49;100.00
60355;BME280;46198;51.464;-0.066;2023-01-26T00:34:49;102750.69;;;4.53;100.00
60355;BME280;46198;51.464;-0.066;2023-01-26T00:37:17;102747.94;;;4.43;100.00
60355;BME280;46198;51.464;-0.066;2023-01-26T00:39:45;102755.38;;;4.51;100.00
60355;BME280;46198;51.464;-0.066;2023-01-26T00:42:15;102744.84;;;4.48;100.00
60355;BME280;46198;51.464;-0.066;2023-01-26T00:44:43;102744.16;;;4.46;100.00
60355;BME280;46198;51.464;-0.066;2023-01-26T00:47:13;102747.53;;;4.48;100.00
60355;BME280;46198;51.464;-0.066;2023-01-26T00:50:07;102744.41;;;4.42;100.00
60355;BME280;46198;51.464;-0.066;2023-01-26T00:57:27;102761.31;;;4.33;100.00
60355;BME280;46198;51.464;-0.066;2023-01-26T00:59:56;102763.44;;;4.30;100.00
60355;BME280;46198;51.464;-0.066;2023-01-26T01:02:25;102765.41;;;4.28;100.00
60355;BME280;46198;51.464;-0.066;2023-01-26T01:04:53;102772.34;;;4.30;100.00
60355;BME280;46198;51.464;-0.066;2023-01-26T01:07:22;102783.09;;;4.30;100.00
60355;BME280;46198;51.464;-0.066;2023-01-26T01:09:51;102767.97;;;4.29;100.00
60355;BME280;46198;51.464;-0.066;2023-01-26T01:12:19;102772.88;;;4.24;100.00
60355;BME280;46198;51.464;-0.066;2023-01-26T01:14:47;102768.00;;;4.18;100.00
60355;BME280;46198;51.464;-0.066;2023-01-26T01:17:15;102758.38;;;4.15;100.00
60355;BME280;46198;51.464;-0.066;2023-01-26T01:19:45;102765.09;;;4.10;100.00
60355;BME280;46198;51.464;-0.066;2023-01-26T01:22:20;102768.84;;;3.97;100.00
60355;BME280;46198;51.464;-0.066;2023-01-26T01:24:48;102767.84;;;3.98;100.00
60355;BME280;46198;51.464;-0.066;2023-01-26T01:27:16;102775.34;;;3.95;100.00
60355;BME280;46198;51.464;-0.066;2023-01-26T01:29:44;102779.38;;;3.89;100.00
60355;BME280;46198;51.464;-0.066;2023-01-26T01:32:12;102771.59;;;3.86;100.00
60355;BME280;46198;51.464;-0.066;2023-01-26T01:34:41;102773.66;;;3.83;100.00
60355;BME280;46198;51.464;-0.066;2023-01-26T01:37:10;102768.53;;;3.80;100.00
60355;BME280;46198;51.464;-0.066;2023-01-26T01:39:38;102769.66;;;3.77;100.00
60355;BME280;46198;51.464;-0.066;2023-01-26T01:42:06;102774.06;;;3.78;100.00
60355;BME280;46198;51.464;-0.066;2023-01-26T01:44:35;102769.06;;;3.73;100.00
60355;BME280;46198;51.464;-0.066;2023-01-26T01:47:05;102768.47;;;3.70;100.00
60355;BME280;46198;51.464;-0.066;2023-01-26T01:49:39;102775.78;;;3.68;100.00
60355;BME280;46198;51.464;-0.066;2023-01-26T01:52:15;102777.25;;;3.72;100.00
60355;BME280;46198;51.464;-0.066;2023-01-26T01:54:47;102781.28;;;3.66;100.00
60355;BME280;46198;51.464;-0.066;2023-01-26T01:57:19;102786.84;;;3.53;100.00
60355;BME280;46198;51.464;-0.066;2023-01-26T01:59:57;102788.75;;;3.63;100.00
60355;BME280;46198;51.464;-0.066;2023-01-26T02:02:27;102789.50;;;3.53;100.00
60355;BME280;46198;51.464;-0.066;2023-01-26T02:04:58;102787.78;;;3.52;100.00
60355;BME280;46198;51.464;-0.066;2023-01-26T02:07:32;102794.41;;;3.48;100.00
60355;BME280;46198;51.464;-0.066;2023-01-26T02:10:01;102790.72;;;3.49;100.00
60355;BME280;46198;51.464;-0.066;2023-01-26T02:12:50;102782.41;;;3.52;100.00
60355;BME280;46198;51.464;-0.066;2023-01-26T02:15:21;102783.19;;;3.43;100.00
60355;BME280;46198;51.464;-0.066;2023-01-26T02:17:50;102783.78;;;3.47;100.00
60355;BME280;46198;51.464;-0.066;2023-01-26T02:20:21;102779.25;;;3.47;100.00
60355;BME280;46198;51.464;-0.066;2023-01-26T02:23:22;102784.63;;;3.47;100.00
60355;BME280;46198;51.464;-0.066;2023-01-26T02:26:05;102790.25;;;3.44;100.00
60355;BME280;46198;51.464;-0.066;2023-01-26T02:28:33;102788.81;;;3.40;100.00
60355;BME280;46198;51.464;-0.066;2023-01-26T02:31:02;102779.66;;;3.43;100.00
60355;BME280;46198;51.464;-0.066;2023-01-26T02:33:31;102774.78;;;3.37;100.00
60355;BME280;46198;51.464;-0.066;2023-01-26T02:36:02;102786.38;;;3.37;100.00
60355;BME280;46198;51.464;-0.066;2023-01-26T02:38:36;102786.16;;;3.29;100.00
60355;BME280;46198;51.464;-0.066;2023-01-26T02:41:08;102791.63;;;3.27;100.00
60355;BME280;46198;51.464;-0.066;2023-01-26T02:43:38;102788.94;;;3.27;100.00
60355;BME280;46198;51.464;-0.066;2023-01-26T02:46:05;102787.09;;;3.28;100.00
60355;BME280;46198;51.464;-0.066;2023-01-26T02:48:36;102788.34;;;3.24;100.00
60355;BME280;46198;51.464;-0.066;2023-01-26T02:51:22;102790.28;;;3.22;100.00
60355;BME280;46198;51.464;-0.066;2023-01-26T02:53:51;102782.97;;;3.24;100.00
60355;BME280;46198;51.464;-0.066;2023-01-26T02:56:20;102778.22;;;3.16;100.00
60355;BME280;46198;51.464;-0.066;2023-01-26T02:58:50;102785.69;;;3.13;100.00
60355;BME280;46198;51.464;-0.066;2023-01-26T03:01:18;102795.91;;;3.07;100.00
60355;BME280;46198;51.464;-0.066;2023-01-26T03:03:46;102797.13;;;3.03;100.00
60355;BME280;46198;51.464;-0.066;2023-01-26T03:06:15;102798.84;;;3.04;100.00
60355;BME280;46198;51.464;-0.066;2023-01-26T03:08:44;102790.56;;;2.96;100.00
60355;BME280;46198;51.464;-0.066;2023-01-26T03:11:12;102787.13;;;2.94;100.00
60355;BME280;46198;51.464;-0.066;2023-01-26T03:13:42;102791.25;;;2.98;100.00
60355;BME280;46198;51.464;-0.066;2023-01-26T03:16:11;102790.78;;;2.93;100.00
60355;BME280;46198;51.464;-0.066;2023-01-26T03:18:41;102790.78;;;2.93;100.00
60355;BME280;46198;51.464;-0.066;2023-01-26T03:21:27;102791.91;;;2.91;100.00
60355;BME280;46198;51.464;-0.066;2023-01-26T03:24:18;102784.81;;;2.89;100.00
60355;BME280;46198;51.464;-0.066;2023-01-26T03:27:07;102799.44;;;2.85;100.00
60355;BME280;46198;51.464;-0.066;2023-01-26T03:30:01;102790.31;;;2.88;100.00
60355;BME280;46198;51.464;-0.066;2023-01-26T03:32:31;102791.50;;;2.84;100.00
60355;BME280;46198;51.464;-0.066;2023-01-26T03:35:01;102801.03;;;2.88;100.00
60355;BME280;46198;51.464;-0.066;2023-01-26T03:37:32;102803.94;;;2.85;100.00
60355;BME280;46198;51.464;-0.066;2023-01-26T03:40:12;102797.13;;;2.81;100.00
60355;BME280;46198;51.464;-0.066;2023-01-26T03:43:06;102798.31;;;2.77;100.00
60355;BME280;46198;51.464;-0.066;2023-01-26T03:45:53;102801.00;;;2.77;100.00
60355;BME280;46198;51.464;-0.066;2023-01-26T03:48:39;102806.38;;;2.77;100.00
60355;BME280;46198;51.464;-0.066;2023-01-26T03:51:25;102806.50;;;2.75;100.00
60355;BME280;46198;51.464;-0.066;2023-01-26T03:54:11;102812.47;;;2.67;100.00
60355;BME280;46198;51.464;-0.066;2023-01-26T03:56:57;102797.13;;;2.70;100.00
60355;BME280;46198;51.464;-0.066;2023-01-26T03:59:26;102809.03;;;2.65;100.00
60355;BME280;46198;51.464;-0.066;2023-01-26T04:02:12;102806.75;;;2.61;100.00
60355;BME280;46198;51.464;-0.066;2023-01-26T04:04:59;102810.50;;;2.58;100.00
60355;BME280;46198;51.464;-0.066;2023-01-26T04:07:48;102802.22;;;2.61;100.00
60355;BME280;46198;51.464;-0.066;2023-01-26T04:10:34;102800.03;;;2.66;100.00
60355;BME280;46198;51.464;-0.066;2023-01-26T04:13:03;102807.44;;;2.63;100.00
60355;BME280;46198;51.464;-0.066;2023-01-26T04:15:58;102809.19;;;2.64;100.00
60355;BME280;46198;51.464;-0.066;2023-01-26T04:18:46;102808.69;;;2.59;100.00
60355;BME280;46198;51.464;-0.066;2023-01-26T04:21:57;102799.78;;;2.58;100.00
60355;BME280;46198;51.464;-0.066;2023-01-26T04:24:26;102809.78;;;2.56;100.00
60355;BME280;46198;51.464;-0.066;2023-01-26T04:26:56;102820.75;;;2.53;100.00
60355;BME280;46198;51.464;-0.066;2023-01-26T04:29:29;102814.53;;;2.53;100.00
60355;BME280;46198;51.464;-0.066;2023-01-26T04:31:57;102824.53;;;2.62;100.00
60355;BME280;46198;51.464;-0.066;2023-01-26T04:34:28;102826.38;;;2.61;100.00
60355;BME280;46198;51.464;-0.066;2023-01-26T04:36:56;102821.94;;;2.60;100.00
60355;BME280;46198;51.464;-0.066;2023-01-26T04:39:33;102839.53;;;2.64;100.00
60355;BME280;46198;51.464;-0.066;2023-01-26T04:42:01;102841.22;;;2.65;100.00
60355;BME280;46198;51.464;-0.066;2023-01-26T04:44:30;102841.00;;;2.69;100.00
60355;BME280;46198;51.464;-0.066;2023-01-26T04:46:58;102845.06;;;2.74;100.00
60355;BME280;46198;51.464;-0.066;2023-01-26T04:49:28;102841.88;;;2.80;100.00
60355;BME280;46198;51.464;-0.066;2023-01-26T04:51:57;102841.75;;;2.82;100.00
60355;BME280;46198;51.464;-0.066;2023-01-26T04:54:26;102843.09;;;2.87;100.00
60355;BME280;46198;51.464;-0.066;2023-01-26T04:56:54;102839.56;;;2.87;100.00
60355;BME280;46198;51.464;-0.066;2023-01-26T04:59:23;102837.38;;;2.92;100.00
60355;BME280;46198;51.464;-0.066;2023-01-26T05:01:55;102833.84;;;2.92;100.00
60355;BME280;46198;51.464;-0.066;2023-01-26T05:04:23;102829.09;;;2.95;100.00
60355;BME280;46198;51.464;-0.066;2023-01-26T05:06:54;102823.59;;;2.97;100.00
60355;BME280;46198;51.464;-0.066;2023-01-26T05:09:24;102831.41;;;3.00;100.00
60355;BME280;46198;51.464;-0.066;2023-01-26T05:12:10;102830.31;;;3.02;100.00
60355;BME280;46198;51.464;-0.066;2023-01-26T05:15:58;102829.81;;;3.08;100.00
60355;BME280;46198;51.464;-0.066;2023-01-26T05:18:53;102827.03;;;3.10;100.00
60355;BME280;46198;51.464;-0.066;2023-01-26T05:21:40;102830.81;;;3.19;100.00
60355;BME280;46198;51.464;-0.066;2023-01-26T05:24:10;102835.81;;;3.23;100.00
60355;BME280;46198;51.464;-0.066;2023-01-26T05:26:58;102832.75;;;3.28;100.00
60355;BME280;46198;51.464;-0.066;2023-01-26T05:29:40;102837.75;;;3.32;100.00
60355;BME280;46198;51.464;-0.066;2023-01-26T05:32:08;102844.59;;;3.37;100.00
60355;BME280;46198;51.464;-0.066;2023-01-26T05:34:37;102843.63;;;3.38;100.00
60355;BME280;46198;51.464;-0.066;2023-01-26T05:37:05;102845.56;;;3.36;100.00
60355;BME280;46198;51.464;-0.066;2023-01-26T05:39:36;102851.53;;;3.39;100.00
60355;BME280;46198;51.464;-0.066;2023-01-26T05:42:06;102843.25;;;3.42;100.00
60355;BME280;46198;51.464;-0.066;2023-01-26T05:44:53;102849.34;;;3.44;100.00
60355;BME280;46198;51.464;-0.066;2023-01-26T05:47:22;102834.31;;;3.42;100.00
60355;BME280;46198;51.464;-0.066;2023-01-26T05:49:50;102837.97;;;3.52;100.00
60355;BME280;46198;51.464;-0.066;2023-01-26T05:52:26;102838.97;;;3.51;100.00
60355;BME280;46198;51.464;-0.066;2023-01-26T05:54:56;102835.66;;;3.59;100.00
60355;BME280;46198;51.464;-0.066;2023-01-26T06:00:44;102841.53;;;3.64;100.00
60355;BME280;46198;51.464;-0.066;2023-01-26T06:03:19;102849.56;;;3.64;100.00
60355;BME280;46198;51.464;-0.066;2023-01-26T06:05:53;102847.00;;;3.62;100.00
60355;BME280;46198;51.464;-0.066;2023-01-26T06:08:37;102843.22;;;3.65;100.00
60355;BME280;46198;51.464;-0.066;2023-01-26T06:11:36;102836.22;;;3.73;100.00
60355;BME280;46198;51.464;-0.066;2023-01-26T06:14:12;102833.44;;;3.75;100.00
60355;BME280;46198;51.464;-0.066;2023-01-26T06:16:44;102837.06;;;3.74;100.00
60355;BME280;46198;51.464;-0.066;2023-01-26T06:19:13;102843.69;;;3.70;100.00
60355;BME280;46198;51.464;-0.066;2023-01-26T06:21:44;102851.75;;;3.70;100.00
60355;BME280;46198;51.464;-0.066;2023-01-26T06:24:13;102852.72;;;3.69;100.00
60355;BME280;46198;51.464;-0.066;2023-01-26T06:26:42;102852.50;;;3.72;100.00
60355;BME280;46198;51.464;-0.066;2023-01-26T06:29:10;102852.50;;;3.72;100.00
60355;BME280;46198;51.464;-0.066;2023-01-26T06:31:39;102861.00;;;3.77;100.00
60355;BME280;46198;51.464;-0.066;2023-01-26T06:34:08;102852.25;;;3.75;100.00
60355;BME280;46198;51.464;-0.066;2023-01-26T06:36:39;102867.47;;;3.74;100.00
60355;BME280;46198;51.464;-0.066;2023-01-26T06:39:15;102862.25;;;3.73;100.00
60355;BME280;46198;51.464;-0.066;2023-01-26T06:41:45;102869.06;;;3.77;100.00
60355;BME280;46198;51.464;-0.066;2023-01-26T06:44:13;102880.06;;;3.74;100.00
60355;BME280;46198;51.464;-0.066;2023-01-26T06:46:41;102872.63;;;3.77;100.00
60355;BME280;46198;51.464;-0.066;2023-01-26T06:49:10;102891.03;;;3.82;100.00
60355;BME280;46198;51.464;-0.066;2023-01-26T06:51:56;102895.22;;;3.75;100.00
60355;BME280;46198;51.464;-0.066;2023-01-26T06:54:39;102887.25;;;3.85;100.00
60355;BME280;46198;51.464;-0.066;2023-01-26T06:57:11;102893.25;;;3.77;100.00
60355;BME280;46198;51.464;-0.066;2023-01-26T07:00:00;102903.63;;;3.82;100.00
60355;BME280;46198;51.464;-0.066;2023-01-26T07:02:43;102909.38;;;3.77;100.00
60355;BME280;46198;51.464;-0.066;2023-01-26T07:05:12;102910.25;;;3.77;100.00
60355;BME280;46198;51.464;-0.066;2023-01-26T07:07:40;102907.41;;;3.79;100.00
60355;BME280;46198;51.464;-0.066;2023-01-26T07:10:09;102912.53;;;3.82;100.00
60355;BME280;46198;51.464;-0.066;2023-01-26T07:12:42;102911.34;;;3.75;100.00
60355;BME280;46198;51.464;-0.066;2023-01-26T07:15:12;102921.00;;;3.77;100.00
60355;BME280;46198;51.464;-0.066;2023-01-26T07:17:40;102914.03;;;3.75;100.00
60355;BME280;46198;51.464;-0.066;2023-01-26T07:20:09;102915.97;;;3.73;100.00
60355;BME280;46198;51.464;-0.066;2023-01-26T07:22:38;102922.22;;;3.73;100.00
60355;BME280;46198;51.464;-0.066;2023-01-26T07:25:09;102925.50;;;3.77;100.00
60355;BME280;46198;51.464;-0.066;2023-01-26T07:27:39;102928.91;;;3.79;100.00
60355;BME280;46198;51.464;-0.066;2023-01-26T07:30:10;102917.81;;;3.72;100.00
60355;BME280;46198;51.464;-0.066;2023-01-26T07:32:40;102924.53;;;3.78;100.00
60355;BME280;46198;51.464;-0.066;2023-01-26T07:35:08;102924.75;;;3.86;100.00
60355;BME280;46198;51.464;-0.066;2023-01-26T07:37:36;102918.41;;;3.87;100.00
60355;BME280;46198;51.464;-0.066;2023-01-26T07:40:07;102910.47;;;3.86;100.00
60355;BME280;46198;51.464;-0.066;2023-01-26T07:42:36;102907.78;;;3.86;100.00
60355;BME280;46198;51.464;-0.066;2023-01-26T07:45:18;102909.50;;;3.87;100.00
60355;BME280;46198;51.464;-0.066;2023-01-26T07:47:47;102901.06;;;3.91;100.00
60355;BME280;46198;51.464;-0.066;2023-01-26T07:50:15;102915.72;;;3.87;100.00
60355;BME280;46198;51.464;-0.066;2023-01-26T07:52:44;102926.09;;;3.92;100.00
60355;BME280;46198;51.464;-0.066;2023-01-26T07:55:12;102943.31;;;3.89;100.00
60355;BME280;46198;51.464;-0.066;2023-01-26T07:57:43;102935.00;;;3.92;100.00
60355;BME280;46198;51.464;-0.066;2023-01-26T08:00:13;102937.44;;;3.95;100.00
60355;BME280;46198;51.464;-0.066;2023-01-26T08:02:50;102941.72;;;3.98;100.00
60355;BME280;46198;51.464;-0.066;2023-01-26T08:05:19;102933.16;;;4.04;100.00
60355;BME280;46198;51.464;-0.066;2023-01-26T08:07:48;102941.59;;;3.99;100.00
60355;BME280;46198;51.464;-0.066;2023-01-26T08:10:17;102940.50;;;4.02;100.00
60355;BME280;46198;51.464;-0.066;2023-01-26T08:12:50;102934.50;;;3.98;100.00
60355;BME280;46198;51.464;-0.066;2023-01-26T08:15:24;102930.22;;;4.07;100.00
60355;BME280;46198;51.464;-0.066;2023-01-26T08:17:54;102939.84;;;4.10;100.00
60355;BME280;46198;51.464;-0.066;2023-01-26T08:20:23;102936.94;;;4.13;100.00
60355;BME280;46198;51.464;-0.066;2023-01-26T08:22:52;102942.09;;;4.05;100.00
60355;BME280;46198;51.464;-0.066;2023-01-26T08:25:25;102937.16;;;4.10;100.00
60355;BME280;46198;51.464;-0.066;2023-01-26T08:27:53;102946.69;;;4.14;100.00
60355;BME280;46198;51.464;-0.066;2023-01-26T08:30:22;102937.91;;;4.12;100.00
60355;BME280;46198;51.464;-0.066;2023-01-26T08:32:51;102947.91;;;4.10;100.00
60355;BME280;46198;51.464;-0.066;2023-01-26T08:35:21;102928.00;;;4.12;100.00
60355;BME280;46198;51.464;-0.066;2023-01-26T08:37:51;102930.19;;;4.18;100.00
60355;BME280;46198;51.464;-0.066;2023-01-26T08:40:19;102944.00;;;4.14;100.00
60355;BME280;46198;51.464;-0.066;2023-01-26T08:42:47;102948.63;;;4.23;100.00
60355;BME280;46198;51.464;-0.066;2023-01-26T08:45:16;102931.91;;;4.19;100.00
60355;BME280;46198;51.464;-0.066;2023-01-26T08:47:48;102932.25;;;4.26;100.00
60355;BME280;46198;51.464;-0.066;2023-01-26T08:50:17;102937.75;;;4.25;100.00
60355;BME280;46198;51.464;-0.066;2023-01-26T08:52:47;102944.97;;;4.24;100.00
60355;BME280;46198;51.464;-0.066;2023-01-26T08:55:15;102949.09;;;4.28;100.00
60355;BME280;46198;51.464;-0.066;2023-01-26T08:57:45;102956.31;;;4.28;100.00
60355;BME280;46198;51.464;-0.066;2023-01-26T09:00:17;102957.91;;;4.30;100.00
60355;BME280;46198;51.464;-0.066;2023-01-26T09:02:47;102956.44;;;4.37;100.00
60355;BME280;46198;51.464;-0.066;2023-01-26T09:05:16;102959.13;;;4.37;100.00
60355;BME280;46198;51.464;-0.066;2023-01-26T09:07:46;102957.88;;;4.41;100.00
60355;BME280;46198;51.464;-0.066;2023-01-26T09:10:15;102959.72;;;4.41;100.00
60355;BME280;46198;51.464;-0.066;2023-01-26T09:12:43;102959.81;;;4.39;100.00
60355;BME280;46198;51.464;-0.066;2023-01-26T09:15:12;102971.22;;;4.43;100.00
60355;BME280;46198;51.464;-0.066;2023-01-26T09:17:40;102974.22;;;4.50;100.00
60355;BME280;46198;51.464;-0.066;2023-01-26T09:20:10;102973.63;;;4.46;100.00
60355;BME280;46198;51.464;-0.066;2023-01-26T09:22:41;102969.09;;;4.47;100.00
60355;BME280;46198;51.464;-0.066;2023-01-26T09:25:11;102969.84;;;4.49;100.00
60355;BME280;46198;51.464;-0.066;2023-01-26T09:27:40;102978.13;;;4.57;100.00
60355;BME280;46198;51.464;-0.066;2023-01-26T09:30:09;102969.31;;;4.55;100.00
60355;BME280;46198;51.464;-0.066;2023-01-26T09:32:38;102971.03;;;4.56;100.00
60355;BME280;46198;51.464;-0.066;2023-01-26T09:35:09;102976.03;;;4.60;100.00
60355;BME280;46198;51.464;-0.066;2023-01-26T09:37:41;102986.69;;;4.62;100.00
60355;BME280;46198;51.464;-0.066;2023-01-26T09:40:18;102989.47;;;4.60;100.00
60355;BME280;46198;51.464;-0.066;2023-01-26T09:42:59;102983.72;;;4.65;100.00
60355;BME280;46198;51.464;-0.066;2023-01-26T09:45:40;102985.91;;;4.71;100.00
60355;BME280;46198;51.464;-0.066;2023-01-26T09:48:20;102990.69;;;4.68;100.00
60355;BME280;46198;51.464;-0.066;2023-01-26T09:50:56;102995.66;;;4.72;100.00
60355;BME280;46198;51.464;-0.066;2023-01-26T09:53:37;102988.06;;;4.77;100.00
60355;BME280;46198;51.464;-0.066;2023-01-26T09:56:14;102988.59;;;4.71;100.00
60355;BME280;46198;51.464;-0.066;2023-01-26T09:58:45;103005.19;;;4.76;100.00
60355;BME280;46198;51.464;-0.066;2023-01-26T10:01:17;102999.56;;;4.79;100.00
60355;BME280;46198;51.464;-0.066;2023-01-26T10:03:55;102992.69;;;4.86;100.00
60355;BME280;46198;51.464;-0.066;2023-01-26T10:06:31;103000.75;;;4.86;100.00
60355;BME280;46198;51.464;-0.066;2023-01-26T10:09:11;102998.78;;;4.88;100.00
60355;BME280;46198;51.464;-0.066;2023-01-26T10:11:43;103014.44;;;4.95;100.00
60355;BME280;46198;51.464;-0.066;2023-01-26T10:14:38;103001.25;;;4.92;100.00
60355;BME280;46198;51.464;-0.066;2023-01-26T10:17:17;103001.63;;;4.87;100.00
60355;BME280;46198;51.464;-0.066;2023-01-26T10:19:52;102999.13;;;4.95;100.00
60355;BME280;46198;51.464;-0.066;2023-01-26T10:22:29;103006.56;;;5.03;100.00
60355;BME280;46198;51.464;-0.066;2023-01-26T10:24:59;103005.72;;;5.02;100.00
60355;BME280;46198;51.464;-0.066;2023-01-26T10:27:29;103014.22;;;5.07;100.00
60355;BME280;46198;51.464;-0.066;2023-01-26T10:29:57;103008.72;;;5.09;100.00
60355;BME280;46198;51.464;-0.066;2023-01-26T10:32:26;103002.34;;;5.10;100.00
60355;BME280;46198;51.464;-0.066;2023-01-26T10:34:55;103007.72;;;5.10;100.00
60355;BME280;46198;51.464;-0.066;2023-01-26T10:37:27;103011.16;;;5.12;100.00
60355;BME280;46198;51.464;-0.066;2023-01-26T10:39:58;103007.50;;;5.13;100.00
60355;BME280;46198;51.464;-0.066;2023-01-26T10:42:31;103009.66;;;5.19;100.00
60355;BME280;46198;51.464;-0.066;2023-01-26T10:45:02;103011.50;;;5.19;100.00
60355;BME280;46198;51.464;-0.066;2023-01-26T10:47:31;103014.66;;;5.24;100.00
60355;BME280;46198;51.464;-0.066;2023-01-26T10:50:17;103004.28;;;5.19;100.00
60355;BME280;46198;51.464;-0.066;2023-01-26T10:52:57;103002.75;;;5.26;100.00
60355;BME280;46198;51.464;-0.066;2023-01-26T10:55:26;102998.81;;;5.30;100.00
60355;BME280;46198;51.464;-0.066;2023-01-26T10:57:57;102993.16;;;5.33;100.00
60355;BME280;46198;51.464;-0.066;2023-01-26T11:00:27;102994.34;;;5.41;100.00
60355;BME280;46198;51.464;-0.066;2023-01-26T11:03:02;102990.13;;;5.48;100.00
60355;BME280;46198;51.464;-0.066;2023-01-26T11:05:32;102995.00;;;5.54;100.00
60355;BME280;46198;51.464;-0.066;2023-01-26T11:08:00;102989.59;;;5.54;100.00
60355;BME280;46198;51.464;-0.066;2023-01-26T11:10:31;103002.06;;;5.55;100.00
60355;BME280;46198;51.464;-0.066;2023-01-26T11:13:11;103002.38;;;5.62;100.00
60355;BME280;46198;51.464;-0.066;2023-01-26T11:15:41;103008.66;;;5.62;100.00
60355;BME280;46198;51.464;-0.066;2023-01-26T11:18:21;103006.41;;;5.67;100.00
60355;BME280;46198;51.464;-0.066;2023-01-26T11:20:56;102998.44;;;5.66;100.00
60355;BME280;46198;51.464;-0.066;2023-01-26T11:23:56;102990.84;;;5.81;100.00
60355;BME280;46198;51.464;-0.066;2023-01-26T11:26:52;103003.16;;;5.94;100.00
60355;BME280;46198;51.464;-0.066;2023-01-26T11:29:48;102993.91;;;5.97;100.00
60355;BME280;46198;51.464;-0.066;2023-01-26T11:32:29;102988.28;;;6.00;100.00
60355;BME280;46198;51.464;-0.066;2023-01-26T11:35:08;102980.19;;;6.00;100.00
60355;BME280;46198;51.464;-0.066;2023-01-26T11:37:42;102978.63;;;6.07;100.00
60355;BME280;46198;51.464;-0.066;2023-01-26T11:40:34;102985.03;;;6.06;100.00
60355;BME280;46198;51.464;-0.066;2023-01-26T11:46:23;102971.69;;;6.14;100.00
60355;BME280;46198;51.464;-0.066;2023-01-26T11:49:08;102970.13;;;6.12;100.00
60355;BME280;46198;51.464;-0.066;2023-01-26T11:52:02;102972.25;;;6.08;100.00
60355;BME280;46198;51.464;-0.066;2023-01-26T11:54:42;102970.28;;;6.20;100.00
60355;BME280;46198;51.464;-0.066;2023-01-26T11:57:22;102968.72;;;6.17;100.00
60355;BME280;46198;51.464;-0.066;2023-01-26T12:00:00;102965.47;;;6.24;100.00
60355;BME280;46198;51.464;-0.066;2023-01-26T12:02:42;102967.88;;;6.27;100.00
60355;BME280;46198;51.464;-0.066;2023-01-26T12:05:14;102959.53;;;6.39;100.00
60355;BME280;46198;51.464;-0.066;2023-01-26T12:07:49;102972.91;;;6.41;100.00
60355;BME280;46198;51.464;-0.066;2023-01-26T12:10:24;102968.75;;;6.37;100.00
60355;BME280;46198;51.464;-0.066;2023-01-26T12:12:59;102964.50;;;6.44;100.00
60355;BME280;46198;51.464;-0.066;2023-01-26T12:15:32;102968.63;;;6.48;100.00
60355;BME280;46198;51.464;-0.066;2023-01-26T12:18:04;102961.25;;;6.50;100.00
60355;BME280;46198;51.464;-0.066;2023-01-26T12:20:37;102961.94;;;6.62;100.00
60355;BME280;46198;51.464;-0.066;2023-01-26T12:23:11;102956.72;;;6.60;100.00
60355;BME280;46198;51.464;-0.066;2023-01-26T12:25:49;102958.69;;;6.58;100.00
60355;BME280;46198;51.464;-0.066;2023-01-26T12:28:23;102952.19;;;6.71;100.00
60355;BME280;46198;51.464;-0.066;2023-01-26T12:30:57;102961.97;;;6.72;100.00
60355;BME280;46198;51.464;-0.066;2023-01-26T12:33:30;102957.41;;;6.72;100.00
60355;BME280;46198;51.464;-0.066;2023-01-26T12:36:11;102952.44;;;6.68;100.00
60355;BME280;46198;51.464;-0.066;2023-01-26T12:38:55;102949.47;;;6.80;100.00
60355;BME280;46198;51.464;-0.066;2023-01-26T12:41:36;102948.31;;;6.83;100.00
60355;BME280;46198;51.464;-0.066;2023-01-26T12:44:19;102954.69;;;6.92;100.00
60355;BME280;46198;51.464;-0.066;2023-01-26T12:46:55;102955.00;;;6.98;100.00
60355;BME280;46198;51.464;-0.066;2023-01-26T12:49:31;102960.69;;;6.95;100.00
60355;BME280;46198;51.464;-0.066;2023-01-26T12:52:07;102958.97;;;6.94;100.00
60355;BME280;46198;51.464;-0.066;2023-01-26T12:54:42;102957.69;;;6.98;100.00
60355;BME280;46198;51.464;-0.066;2023-01-26T12:57:14;102953.00;;;7.00;100.00
60355;BME280;46198;51.464;-0.066;2023-01-26T12:59:44;102951.56;;;7.06;100.00
60355;BME280;46198;51.464;-0.066;2023-01-26T13:02:25;102959.25;;;7.01;100.00
60355;BME280;46198;51.464;-0.066;2023-01-26T13:04:57;102956.13;;;6.96;100.00
60355;BME280;46198;51.464;-0.066;2023-01-26T13:07:30;102954.41;;;7.04;100.00
60355;BME280;46198;51.464;-0.066;2023-01-26T13:10:18;102946.13;;;7.16;100.00
60355;BME280;46198;51.464;-0.066;2023-01-26T13:12:54;102944.56;;;7.23;100.00
60355;BME280;46198;51.464;-0.066;2023-01-26T13:15:27;102940.72;;;7.25;100.00
60355;BME280;46198;51.464;-0.066;2023-01-26T13:17:57;102953.22;;;7.36;100.00
60355;BME280;46198;51.464;-0.066;2023-01-26T13:20:46;102955.78;;;7.28;100.00
60355;BME280;46198;51.464;-0.066;2023-01-26T13:29:30;102943.84;;;7.21;100.00
60355;BME280;46198;51.464;-0.066;2023-01-26T13:32:52;102940.72;;;7.25;100.00
60355;BME280;46198;51.464;-0.066;2023-01-26T13:34:51;102951.84;;;7.22;100.00